Time;durP1;ratioP1;P1;durP2;ratioP2;P2;SDS_P1;SDS_P2;PMS_P1;PMS_P2;Temp;Humidity;BMP_temperature;BMP_pressure;BME280_temperature;BME280_humidity;BME280_pressure;Samples;Min_cycle;Max_cycle;Signal;HPM_P1;HPM_P2
2022/07/24 00:00:18;;;;;;;34.43;30.80;;;22.20;1.00;;;;;;5118703;28;20279;-82
2022/07/24 00:02:43;;;;;;;35.00;31.50;;;22.10;1.00;;;;;;5135474;28;20170;-83
2022/07/24 00:05:10;;;;;;;35.87;32.27;;;22.20;1.00;;;;;;5117349;28;20186;-83
2022/07/24 00:07:36;;;;;;;36.43;32.77;;;22.30;1.00;;;;;;5135150;28;20171;-81
2022/07/24 00:10:04;;;;;;;40.70;33.17;;;22.30;1.00;;;;;;5119973;28;20750;-82
2022/07/24 00:12:31;;;;;;;38.77;32.80;;;22.40;1.00;;;;;;5137568;27;20254;-82
2022/07/24 00:14:56;;;;;;;36.33;32.73;;;22.30;1.00;;;;;;5152750;27;20216;-84
2022/07/24 00:17:22;;;;;;;37.30;33.13;;;22.20;1.00;;;;;;5120056;28;20175;-83
2022/07/24 00:19:51;;;;;;;36.93;33.13;;;22.20;1.00;;;;;;5118781;28;20332;-82
2022/07/24 00:22:23;;;;;;;35.10;31.77;;;22.10;1.00;;;;;;5137485;28;20171;-82
2022/07/24 00:24:49;;;;;;;38.53;34.63;;;22.00;1.00;;;;;;5138553;27;20191;-84
2022/07/24 00:27:15;;;;;;;38.00;34.27;;;21.90;1.00;;;;;;5139378;27;20184;-83
2022/07/24 00:29:47;;;;;;;37.70;33.90;;;21.90;1.00;;;;;;5135464;27;20282;-81
2022/07/24 00:32:13;;;;;;;38.80;34.70;;;21.90;1.00;;;;;;5142767;27;20164;-83
2022/07/24 00:34:38;;;;;;;38.63;34.93;;;21.90;1.00;;;;;;5149718;27;20173;-83
2022/07/24 00:37:06;;;;;;;38.57;34.57;;;21.90;1.00;;;;;;5127652;27;20169;-82
2022/07/24 00:39:38;;;;;;;38.23;34.53;;;21.90;1.00;;;;;;5122650;27;20175;-83
2022/07/24 00:42:05;;;;;;;39.00;34.87;;;21.90;1.00;;;;;;5120293;27;20225;-84
2022/07/24 00:44:31;;;;;;;37.27;33.63;;;21.70;1.00;;;;;;5120191;27;20200;-83
2022/07/24 00:47:04;;;;;;;37.33;33.30;;;21.70;1.00;;;;;;5138312;27;20228;-84
2022/07/24 00:49:30;;;;;;;34.93;31.30;;;21.60;1.00;;;;;;5139605;27;20221;-83
2022/07/24 00:51:57;;;;;;;33.13;29.97;;;21.60;1.00;;;;;;5139660;27;20267;-82
2022/07/24 00:54:23;;;;;;;33.93;30.73;;;21.40;1.00;;;;;;5121828;27;20181;-83
2022/07/24 00:56:51;;;;;;;32.70;29.27;;;21.30;2.60;;;;;;5142775;27;20170;-81
2022/07/24 00:59:18;;;;;;;32.97;29.57;;;21.30;4.00;;;;;;5141879;27;20163;-82
2022/07/24 01:01:46;;;;;;;32.73;29.40;;;21.20;6.10;;;;;;5142743;27;20179;-83
2022/07/24 01:04:13;;;;;;;32.53;29.40;;;21.10;8.80;;;;;;5141092;27;20229;-83
2022/07/24 01:06:47;;;;;;;32.53;29.53;;;21.30;2.90;;;;;;5141668;27;20155;-82
2022/07/24 01:09:16;;;;;;;33.10;29.70;;;21.20;6.50;;;;;;5129456;27;20241;-82
2022/07/24 01:11:45;;;;;;;32.53;29.27;;;21.20;9.20;;;;;;5127917;27;20257;-82
2022/07/24 01:14:13;;;;;;;32.47;29.47;;;21.20;5.90;;;;;;5138196;27;20166;-83
2022/07/24 01:16:45;;;;;;;32.63;29.37;;;21.20;8.40;;;;;;5119462;27;20206;-83
2022/07/24 01:19:10;;;;;;;34.70;31.30;;;21.10;8.50;;;;;;5142529;27;20202;-83
2022/07/24 01:21:37;;;;;;;35.00;31.30;;;20.90;13.70;;;;;;5144268;27;20186;-82
2022/07/24 01:24:03;;;;;;;35.70;32.10;;;20.80;20.90;;;;;;5143539;27;20181;-82
2022/07/24 01:26:29;;;;;;;35.00;31.63;;;20.60;24.10;;;;;;5142101;27;20169;-83
2022/07/24 01:28:57;;;;;;;34.70;30.93;;;20.60;24.10;;;;;;5124557;27;20179;-82
2022/07/24 01:31:37;;;;;;;34.33;30.87;;;20.60;26.80;;;;;;5119899;27;20204;-82
2022/07/24 01:34:04;;;;;;;33.80;30.27;;;20.40;30.60;;;;;;5138626;27;20250;-84
2022/07/24 01:36:29;;;;;;;32.10;28.93;;;20.50;32.80;;;;;;5117927;27;20203;-81
2022/07/24 01:38:55;;;;;;;32.23;29.10;;;20.60;27.40;;;;;;5120587;27;20634;-81
2022/07/24 01:41:21;;;;;;;30.57;27.53;;;20.70;26.30;;;;;;5120396;27;20183;-83
2022/07/24 01:43:47;;;;;;;30.63;27.43;;;20.60;24.50;;;;;;5141231;27;20159;-82
2022/07/24 01:46:12;;;;;;;30.70;27.63;;;20.70;23.10;;;;;;5161484;27;20170;-82
2022/07/24 01:48:40;;;;;;;32.03;28.87;;;20.70;21.40;;;;;;5135016;27;20184;-82
2022/07/24 01:51:10;;;;;;;32.47;29.07;;;20.80;19.40;;;;;;5135339;27;20336;-83
2022/07/24 01:53:39;;;;;;;31.67;28.77;;;20.80;20.60;;;;;;5123946;27;20185;-81
2022/07/24 01:56:04;;;;;;;34.30;30.70;;;20.90;19.60;;;;;;5119177;27;20265;-83
2022/07/24 01:58:32;;;;;;;33.23;30.03;;;20.80;20.50;;;;;;5121130;27;20216;-82
2022/07/24 02:00:58;;;;;;;34.40;30.80;;;20.80;23.00;;;;;;5134467;27;20170;-81
2022/07/24 02:03:23;;;;;;;33.50;29.40;;;20.70;22.80;;;;;;5158340;27;20173;-82
2022/07/24 02:05:51;;;;;;;33.80;30.70;;;20.60;25.80;;;;;;5139025;27;20192;-81
2022/07/24 02:08:17;;;;;;;35.00;31.60;;;20.60;26.60;;;;;;5153653;27;20163;-81
2022/07/24 02:10:42;;;;;;;36.60;33.03;;;20.60;25.10;;;;;;5137727;27;20206;-83
2022/07/24 02:13:08;;;;;;;35.17;31.87;;;20.70;25.30;;;;;;5137296;27;20162;-81
2022/07/24 02:15:34;;;;;;;36.80;33.17;;;20.60;26.90;;;;;;5118341;27;20548;-84
2022/07/24 02:18:01;;;;;;;36.13;32.67;;;20.50;30.90;;;;;;5118237;27;20178;-83
2022/07/24 02:20:28;;;;;;;36.60;32.83;;;20.40;33.30;;;;;;5117525;27;20206;-83
2022/07/24 02:22:54;;;;;;;35.87;32.37;;;20.50;32.20;;;;;;5117675;27;20173;-84
2022/07/24 02:25:20;;;;;;;35.53;32.03;;;20.50;33.40;;;;;;5116809;27;20252;-83
2022/07/24 02:27:46;;;;;;;33.50;30.33;;;20.50;32.40;;;;;;5117508;27;20669;-83
2022/07/24 02:30:15;;;;;;;35.17;31.40;;;20.60;30.60;;;;;;5120880;27;20222;-83
2022/07/24 02:32:41;;;;;;;32.90;29.50;;;20.50;29.30;;;;;;5135943;27;20652;-82
2022/07/24 02:35:06;;;;;;;32.37;28.43;;;20.50;28.90;;;;;;5137174;27;20162;-79
2022/07/24 02:37:34;;;;;;;30.60;27.40;;;20.40;28.10;;;;;;5117457;27;20265;-82
2022/07/24 02:40:00;;;;;;;29.50;26.57;;;20.30;30.70;;;;;;5138616;27;20165;-81
2022/07/24 02:42:26;;;;;;;30.27;27.07;;;20.30;31.40;;;;;;5117632;27;20231;-83
2022/07/24 02:44:52;;;;;;;28.27;25.27;;;20.20;30.40;;;;;;5118494;27;20181;-82
2022/07/24 02:47:17;;;;;;;28.80;25.67;;;20.30;30.10;;;;;;5116980;27;20197;-83
2022/07/24 02:49:43;;;;;;;28.87;25.90;;;20.40;29.90;;;;;;5121186;27;20678;-82
2022/07/24 02:52:09;;;;;;;28.97;25.97;;;20.30;29.30;;;;;;5138223;27;20167;-83
2022/07/24 02:54:35;;;;;;;27.97;25.17;;;20.30;29.00;;;;;;5137515;27;20161;-83
2022/07/24 02:57:00;;;;;;;27.90;25.07;;;20.20;29.70;;;;;;5141230;27;20170;-82
2022/07/24 02:59:26;;;;;;;30.07;26.97;;;20.40;26.80;;;;;;5134959;27;20178;-83
2022/07/24 03:01:55;;;;;;;31.77;28.57;;;20.40;25.60;;;;;;5118916;27;20164;-82
2022/07/24 03:04:23;;;;;;;32.87;28.53;;;20.40;24.00;;;;;;5118541;27;20160;-83
2022/07/24 03:06:49;;;;;;;31.83;28.47;;;20.30;27.60;;;;;;5117675;27;20180;-83
2022/07/24 03:09:15;;;;;;;32.17;28.97;;;20.10;30.90;;;;;;5118966;27;20172;-82
2022/07/24 03:11:41;;;;;;;31.70;28.47;;;20.10;31.70;;;;;;5118105;27;20186;-83
2022/07/24 03:14:07;;;;;;;30.37;27.27;;;20.00;35.20;;;;;;5140948;27;20235;-83
2022/07/24 03:16:32;;;;;;;31.80;28.50;;;19.80;42.80;;;;;;5149663;27;20655;-84
2022/07/24 03:18:58;;;;;;;30.53;27.40;;;19.80;42.10;;;;;;5120196;27;20206;-81
2022/07/24 03:21:24;;;;;;;28.77;25.87;;;19.60;44.30;;;;;;5136513;27;20168;-83
2022/07/24 03:23:49;;;;;;;28.23;25.37;;;19.60;48.90;;;;;;5116512;27;20178;-82
2022/07/24 03:26:15;;;;;;;27.20;24.47;;;19.60;48.20;;;;;;5134785;28;20242;-83
2022/07/24 03:28:41;;;;;;;28.47;25.67;;;19.50;48.30;;;;;;5116298;28;20180;-82
2022/07/24 03:31:08;;;;;;;32.80;29.50;;;19.50;47.00;;;;;;5116211;28;20219;-81
2022/07/24 03:33:34;;;;;;;34.47;30.67;;;19.50;48.20;;;;;;5135189;28;20173;-82
2022/07/24 03:35:59;;;;;;;31.57;28.40;;;19.50;51.00;;;;;;5117269;28;20180;-82
2022/07/24 03:38:25;;;;;;;36.00;31.07;;;19.60;48.70;;;;;;5128843;28;20196;-81
2022/07/24 03:40:52;;;;;;;34.07;30.57;;;19.60;44.80;;;;;;5125144;28;20622;-83
2022/07/24 03:43:18;;;;;;;34.43;30.73;;;19.80;42.20;;;;;;5135047;28;20562;-83
2022/07/24 03:45:44;;;;;;;34.30;30.63;;;19.80;39.10;;;;;;5116705;28;20183;-82
2022/07/24 03:48:09;;;;;;;34.47;30.87;;;20.00;34.80;;;;;;5117480;28;20164;-84
2022/07/24 03:50:35;;;;;;;38.33;34.33;;;20.00;33.50;;;;;;5117897;28;20209;-82
2022/07/24 03:53:01;;;;;;;40.63;36.17;;;19.70;38.60;;;;;;5134546;28;20169;-82
2022/07/24 03:55:27;;;;;;;39.93;35.83;;;19.50;44.40;;;;;;5135491;28;20644;-82
2022/07/24 03:57:53;;;;;;;39.80;35.77;;;19.50;42.30;;;;;;5116395;28;20170;-81
2022/07/24 04:00:19;;;;;;;40.53;36.50;;;19.50;45.00;;;;;;5119892;27;20171;-81
2022/07/24 04:02:44;;;;;;;41.33;37.00;;;19.40;48.10;;;;;;5121070;27;20176;-82
2022/07/24 04:05:12;;;;;;;37.60;33.90;;;19.30;50.30;;;;;;5142444;27;20179;-81
2022/07/24 04:07:38;;;;;;;35.00;31.60;;;19.20;50.90;;;;;;5124859;27;20161;-81
2022/07/24 04:10:06;;;;;;;40.47;31.17;;;19.20;51.30;;;;;;5125928;27;20216;-82
2022/07/24 04:12:32;;;;;;;30.97;27.90;;;19.20;50.90;;;;;;5120134;27;20177;-83
2022/07/24 04:14:57;;;;;;;29.80;26.63;;;19.20;48.80;;;;;;5138656;27;20266;-82
2022/07/24 04:17:23;;;;;;;30.73;27.23;;;19.30;46.60;;;;;;5119906;27;20184;-81
2022/07/24 04:19:50;;;;;;;28.70;25.50;;;19.30;47.00;;;;;;5120886;27;20667;-82
2022/07/24 04:22:15;;;;;;;27.93;25.17;;;19.40;41.20;;;;;;5138587;27;20200;-82
2022/07/24 04:24:41;;;;;;;28.90;25.87;;;19.50;36.70;;;;;;5138652;27;20199;-83
2022/07/24 04:27:07;;;;;;;28.90;26.00;;;19.40;39.60;;;;;;5137977;27;20664;-83
2022/07/24 04:29:32;;;;;;;29.33;26.40;;;19.30;40.10;;;;;;5119800;27;20298;-83
2022/07/24 04:31:58;;;;;;;31.80;28.57;;;19.30;41.50;;;;;;5119925;27;20172;-83
2022/07/24 04:34:24;;;;;;;30.87;27.43;;;19.30;43.80;;;;;;5119921;27;20593;-82
2022/07/24 04:36:50;;;;;;;30.77;27.47;;;19.30;44.40;;;;;;5126055;27;20184;-82
2022/07/24 04:39:16;;;;;;;28.67;25.67;;;19.20;45.80;;;;;;5163118;27;20160;-81
2022/07/24 04:41:42;;;;;;;29.23;26.23;;;19.30;43.80;;;;;;5153948;27;20169;-82
2022/07/24 04:44:08;;;;;;;27.63;24.80;;;19.30;40.60;;;;;;5123305;27;20173;-81
2022/07/24 04:46:36;;;;;;;27.97;24.97;;;19.40;38.60;;;;;;5139108;27;20185;-81
2022/07/24 04:49:02;;;;;;;27.03;24.17;;;19.40;36.00;;;;;;5161495;27;20154;-81
2022/07/24 04:51:29;;;;;;;27.73;24.17;;;19.50;34.30;;;;;;5144126;27;20212;-81
2022/07/24 04:53:55;;;;;;;25.83;22.70;;;19.50;32.60;;;;;;5162351;27;20156;-82
2022/07/24 04:56:21;;;;;;;26.67;22.67;;;19.40;34.10;;;;;;5132377;27;20208;-81
2022/07/24 04:58:47;;;;;;;24.67;21.80;;;19.50;34.60;;;;;;5129795;27;20267;-81
2022/07/24 05:01:27;;;;;;;26.30;23.60;;;19.50;32.20;;;;;;5162351;27;20195;-80
2022/07/24 05:03:58;;;;;;;26.43;23.53;;;19.60;32.50;;;;;;5144649;27;20197;-81
2022/07/24 05:06:26;;;;;;;26.67;23.30;;;19.60;31.20;;;;;;5141901;27;20143;-82
2022/07/24 05:08:55;;;;;;;25.20;22.10;;;19.80;30.10;;;;;;5118625;27;20268;-82
2022/07/24 05:11:20;;;;;;;25.13;21.50;;;19.80;28.70;;;;;;5120565;27;20286;-81
2022/07/24 05:13:46;;;;;;;27.73;22.80;;;19.80;27.20;;;;;;5150081;27;20173;-81
2022/07/24 05:16:12;;;;;;;31.43;24.33;;;19.90;24.40;;;;;;5133085;27;20178;-82
2022/07/24 05:18:37;;;;;;;27.10;24.17;;;19.90;22.00;;;;;;5120835;27;20174;-82
2022/07/24 05:21:03;;;;;;;24.77;22.10;;;19.90;19.80;;;;;;5119874;27;20185;-82
2022/07/24 05:23:29;;;;;;;20.03;17.73;;;19.90;18.70;;;;;;5138130;27;20173;-81
2022/07/24 05:25:54;;;;;;;19.50;17.50;;;20.00;16.40;;;;;;5119301;27;20182;-81
2022/07/24 05:28:20;;;;;;;17.83;15.93;;;20.20;14.30;;;;;;5119107;27;20569;-83
2022/07/24 05:30:46;;;;;;;16.07;14.37;;;20.10;12.70;;;;;;5137978;27;20742;-83
2022/07/24 05:33:11;;;;;;;15.90;14.10;;;20.20;7.60;;;;;;5138796;27;20571;-83
2022/07/24 05:35:37;;;;;;;18.23;13.97;;;20.20;4.20;;;;;;5141953;27;20180;-82
2022/07/24 05:38:05;;;;;;;15.27;13.00;;;20.40;1.00;;;;;;5141957;27;20195;-82
2022/07/24 05:40:30;;;;;;;16.97;12.87;;;20.40;1.00;;;;;;5150847;27;20178;-82
2022/07/24 05:42:59;;;;;;;13.90;12.50;;;20.30;1.00;;;;;;5120489;27;20176;-83
2022/07/24 05:45:25;;;;;;;13.13;11.83;;;20.30;1.00;;;;;;5120032;27;20185;-83
2022/07/24 05:47:50;;;;;;;15.13;11.73;;;20.40;1.00;;;;;;5149560;27;20853;-81
2022/07/24 05:50:16;;;;;;;13.57;11.87;;;20.40;1.00;;;;;;5141077;27;20208;-82
2022/07/24 05:52:42;;;;;;;13.67;12.07;;;20.60;1.00;;;;;;5140750;27;20175;-82
2022/07/24 05:55:09;;;;;;;13.50;11.57;;;20.50;1.00;;;;;;5141358;27;20173;-81
2022/07/24 05:57:35;;;;;;;13.13;11.80;;;20.50;1.00;;;;;;5142228;27;20186;-82
2022/07/24 06:00:00;;;;;;;13.53;12.13;;;20.50;1.00;;;;;;5134115;27;20659;-83
2022/07/24 06:02:28;;;;;;;14.70;11.77;;;20.50;1.00;;;;;;5119785;27;20559;-82
2022/07/24 06:04:54;;;;;;;12.20;10.93;;;20.70;1.00;;;;;;5118514;27;20582;-81
2022/07/24 06:07:20;;;;;;;15.50;10.37;;;20.80;1.00;;;;;;5117847;27;20261;-82
2022/07/24 06:09:45;;;;;;;12.97;10.30;;;21.10;1.00;;;;;;5118669;27;20578;-82
2022/07/24 06:12:11;;;;;;;12.83;10.13;;;21.10;1.00;;;;;;5117864;27;20551;-82
2022/07/24 06:14:36;;;;;;;12.90;9.50;;;21.30;1.00;;;;;;5118738;27;20537;-82
2022/07/24 06:17:02;;;;;;;12.30;10.40;;;21.40;1.00;;;;;;5135860;27;20579;-83
2022/07/24 06:19:28;;;;;;;11.73;9.40;;;21.60;1.00;;;;;;5138305;27;20256;-82
2022/07/24 06:21:54;;;;;;;10.10;9.03;;;21.70;1.00;;;;;;5137809;27;20265;-82
2022/07/24 06:24:20;;;;;;;14.60;9.27;;;21.80;1.00;;;;;;5119530;27;20296;-82
2022/07/24 06:26:47;;;;;;;9.77;8.77;;;21.60;1.00;;;;;;5120125;27;20212;-82
2022/07/24 06:29:12;;;;;;;11.77;9.57;;;21.50;1.00;;;;;;5119684;27;20240;-82
2022/07/24 06:31:38;;;;;;;11.57;8.60;;;21.50;1.00;;;;;;5118372;27;20219;-82
2022/07/24 06:34:04;;;;;;;10.77;9.00;;;21.70;1.00;;;;;;5118420;27;20170;-84
2022/07/24 06:36:29;;;;;;;10.57;8.13;;;21.90;1.00;;;;;;5117336;27;20179;-83
2022/07/24 06:38:55;;;;;;;10.13;8.90;;;21.80;1.00;;;;;;5119324;27;20635;-82
2022/07/24 06:41:21;;;;;;;10.57;8.90;;;21.80;1.00;;;;;;5118642;27;20200;-84
2022/07/24 06:43:47;;;;;;;9.93;8.40;;;21.80;1.00;;;;;;5101084;27;20233;-83
2022/07/24 06:46:12;;;;;;;11.00;8.10;;;21.90;1.00;;;;;;5135673;27;20245;-82
2022/07/24 06:48:39;;;;;;;9.67;7.83;;;21.90;1.00;;;;;;5119348;27;20658;-83
2022/07/24 06:51:05;;;;;;;10.73;7.43;;;22.00;1.00;;;;;;5133618;27;20246;-83
2022/07/24 06:53:30;;;;;;;9.70;7.80;;;22.20;1.00;;;;;;5121092;27;20169;-81
2022/07/24 06:55:56;;;;;;;9.27;7.50;;;22.30;1.00;;;;;;5119484;27;20179;-81
2022/07/24 06:58:22;;;;;;;9.47;6.83;;;22.50;1.00;;;;;;5137209;27;20216;-82
2022/07/24 07:00:48;;;;;;;10.67;7.00;;;22.40;1.00;;;;;;5137422;27;20621;-83
2022/07/24 07:03:16;;;;;;;10.17;7.27;;;22.50;1.00;;;;;;5119420;27;20173;-83
2022/07/24 07:05:42;;;;;;;9.40;7.03;;;22.70;1.00;;;;;;5120101;27;20656;-83
2022/07/24 07:08:08;;;;;;;7.27;5.93;;;22.90;1.00;;;;;;5119808;27;20304;-81
2022/07/24 07:10:33;;;;;;;5.93;4.87;;;23.00;1.00;;;;;;5120239;27;20207;-82
2022/07/24 07:12:59;;;;;;;8.30;5.33;;;22.90;1.00;;;;;;5117489;27;20201;-83
2022/07/24 07:15:26;;;;;;;8.23;5.73;;;23.00;99.90;;;;;;5118843;27;20252;-81
2022/07/24 07:17:52;;;;;;;7.57;5.13;;;23.00;99.90;;;;;;5136330;27;20468;-81
2022/07/24 07:20:18;;;;;;;8.00;5.60;;;23.20;99.90;;;;;;5120092;28;20200;-83
2022/07/24 07:22:44;;;;;;;7.30;5.37;;;23.30;99.90;;;;;;5118276;27;20164;-82
2022/07/24 07:25:10;;;;;;;7.03;4.70;;;23.40;99.90;;;;;;5118253;27;20641;-82
2022/07/24 07:27:37;;;;;;;8.87;5.27;;;23.30;99.90;;;;;;5101096;28;20180;-82
2022/07/24 07:30:07;;;;;;;7.47;4.83;;;23.40;99.90;;;;;;5138417;28;20305;-81
2022/07/24 07:32:33;;;;;;;7.83;4.53;;;23.50;99.90;;;;;;5117116;28;20265;-84
2022/07/24 07:34:59;;;;;;;6.97;4.17;;;23.70;90.00;;;;;;5119982;27;20203;-83
2022/07/24 07:37:24;;;;;;;7.60;3.87;;;23.80;2.20;;;;;;5121924;27;20231;-84
2022/07/24 07:39:52;;;;;;;6.73;4.30;;;23.80;1.00;;;;;;5123434;27;20237;-83
2022/07/24 07:42:17;;;;;;;5.43;3.90;;;23.90;1.00;;;;;;5121717;27;20170;-83
2022/07/24 07:44:43;;;;;;;5.40;4.17;;;23.90;15.30;;;;;;5121856;27;20195;-82
2022/07/24 07:47:08;;;;;;;8.90;5.83;;;23.80;1.00;;;;;;5120788;27;20185;-82
2022/07/24 07:49:34;;;;;;;5.83;3.83;;;23.90;1.00;;;;;;5120532;27;20558;-83
2022/07/24 07:52:01;;;;;;;6.17;3.60;;;24.00;1.00;;;;;;5120559;27;20667;-82
2022/07/24 07:54:27;;;;;;;6.60;3.57;;;24.20;1.00;;;;;;5127766;27;20199;-82
2022/07/24 07:56:52;;;;;;;5.87;3.50;;;24.40;1.00;;;;;;5145682;27;20184;-82
2022/07/24 07:59:18;;;;;;;5.80;3.37;;;24.50;1.00;;;;;;5141399;27;20171;-82
2022/07/24 08:01:44;;;;;;;6.40;3.57;;;24.70;99.90;;;;;;5136679;27;20182;-82
2022/07/24 08:04:13;;;;;;;5.57;3.30;;;24.70;99.90;;;;;;5121998;27;20307;-83
2022/07/24 08:06:41;;;;;;;5.53;3.30;;;24.70;99.90;;;;;;5120654;27;20162;-83
2022/07/24 08:09:08;;;;;;;5.57;3.40;;;24.70;99.90;;;;;;5138971;27;20204;-83
2022/07/24 08:11:34;;;;;;;6.63;3.47;;;24.80;99.90;;;;;;5121024;27;20282;-82
2022/07/24 08:14:00;;;;;;;5.63;3.40;;;24.80;99.90;;;;;;5123737;27;20170;-82
2022/07/24 08:16:25;;;;;;;5.70;3.40;;;24.90;86.90;;;;;;5153062;27;20170;-82
2022/07/24 08:18:51;;;;;;;6.43;3.17;;;25.10;27.80;;;;;;5145187;27;20247;-82
2022/07/24 08:21:18;;;;;;;5.23;2.77;;;25.10;1.00;;;;;;5144869;27;20178;-82
2022/07/24 08:23:45;;;;;;;8.03;3.00;;;25.10;1.00;;;;;;5139084;27;20167;-82
2022/07/24 08:26:13;;;;;;;4.37;3.10;;;25.10;1.00;;;;;;5136179;27;20155;-82
2022/07/24 08:28:54;;;;;;;5.07;3.10;;;25.20;1.00;;;;;;5147676;27;20227;-81
2022/07/24 08:31:20;;;;;;;4.03;2.67;;;25.10;1.00;;;;;;5140887;27;20214;-82
2022/07/24 08:33:47;;;;;;;4.30;2.73;;;25.20;1.00;;;;;;5135509;27;20215;-81
2022/07/24 08:36:13;;;;;;;4.93;3.03;;;25.20;1.00;;;;;;5162081;27;20162;-81
2022/07/24 08:38:38;;;;;;;4.97;3.17;;;25.40;1.00;;;;;;5144670;27;20164;-82
2022/07/24 08:41:05;;;;;;;4.87;2.67;;;25.50;99.90;;;;;;5162733;27;20158;-82
2022/07/24 08:43:33;;;;;;;3.53;2.60;;;25.60;99.90;;;;;;5161083;27;20167;-80
2022/07/24 08:46:01;;;;;;;5.47;2.90;;;25.60;99.90;;;;;;5154834;27;20159;-83
2022/07/24 08:48:30;;;;;;;5.13;2.70;;;25.70;99.90;;;;;;5126074;27;20166;-83
2022/07/24 08:51:15;;;;;;;4.77;2.93;;;25.90;99.90;;;;;;5120229;27;20198;-83
2022/07/24 08:53:43;;;;;;;4.00;2.43;;;26.10;1.00;;;;;;5138207;27;20211;-83
2022/07/24 08:56:10;;;;;;;4.33;2.20;;;26.20;99.90;;;;;;5137670;27;20210;-82
2022/07/24 08:58:40;;;;;;;6.00;2.60;;;26.30;1.00;;;;;;5119756;27;20174;-83
2022/07/24 09:01:06;;;;;;;4.53;2.40;;;26.20;1.00;;;;;;5119047;27;20178;-83
2022/07/24 09:03:44;;;;;;;3.37;2.17;;;26.20;99.90;;;;;;5119181;27;20174;-83
2022/07/24 09:06:10;;;;;;;4.37;2.23;;;26.50;99.90;;;;;;5119266;27;20171;-83
2022/07/24 09:08:39;;;;;;;3.10;2.00;;;26.60;1.00;;;;;;5119287;27;20197;-83
2022/07/24 09:11:07;;;;;;;3.07;2.40;;;26.80;99.90;;;;;;5119186;27;20214;-83
2022/07/24 09:16:24;;;;;;;3.23;1.90;;;27.00;1.00;;;;;;5137626;27;20539;-83
2022/07/24 09:19:07;;;;;;;2.63;2.23;;;27.00;99.90;;;;;;5118663;27;20197;-85
2022/07/24 09:21:38;;;;;;;3.63;2.17;;;27.00;99.90;;;;;;5118866;27;20238;-83
2022/07/24 09:24:12;;;;;;;4.90;2.50;;;27.10;99.90;;;;;;5138347;27;20188;-82
2022/07/24 09:26:45;;;;;;;4.33;2.23;;;27.10;89.90;;;;;;5137976;27;20170;-82
2022/07/24 09:29:12;;;;;;;2.23;1.90;;;27.20;1.00;;;;;;5121388;27;20606;-83
2022/07/24 09:31:56;;;;;;;9.10;2.30;;;27.20;1.00;;;;;;5119776;27;20206;-83
2022/07/24 09:34:24;;;;;;;2.20;1.80;;;27.30;37.40;;;;;;5118692;27;20741;-82
2022/07/24 09:37:02;;;;;;;3.28;2.42;;;27.40;99.90;;;;;;5118600;27;20174;-82
2022/07/24 09:39:34;;;;;;;4.10;1.97;;;27.30;1.00;;;;;;5120997;27;20198;-83
2022/07/24 09:42:02;;;;;;;3.53;2.00;;;27.30;1.00;;;;;;5119900;27;20315;-83
2022/07/24 09:44:29;;;;;;;3.93;1.80;;;27.40;99.90;;;;;;5137803;27;20623;-82
2022/07/24 09:47:00;;;;;;;2.93;1.87;;;27.40;99.90;;;;;;5122159;27;20194;-83
2022/07/24 09:49:28;;;;;;;4.10;1.88;;;27.40;99.90;;;;;;5120158;27;20173;-83
2022/07/24 09:52:10;;;;;;;2.77;1.83;;;27.40;1.00;;;;;;5121193;27;20203;-82
2022/07/24 09:54:49;;;;;;;3.57;2.10;;;27.20;1.00;;;;;;5136695;27;20686;-84
2022/07/24 09:57:29;;;;;;;2.83;1.80;;;27.20;99.90;;;;;;5117705;27;20190;-82
2022/07/24 10:00:06;;;;;;;2.97;2.10;;;27.10;99.90;;;;;;5138369;27;20245;-82
2022/07/24 10:02:33;;;;;;;3.03;1.80;;;27.10;99.90;;;;;;5125565;27;20195;-82
2022/07/24 10:05:03;;;;;;;3.10;1.70;;;27.10;1.00;;;;;;5129410;27;20185;-84
2022/07/24 10:07:33;;;;;;;2.90;1.93;;;27.20;1.00;;;;;;5136780;27;20185;-83
2022/07/24 10:10:00;;;;;;;2.80;2.10;;;27.30;1.00;;;;;;5118124;27;20212;-83
2022/07/24 10:12:29;;;;;;;3.37;2.40;;;27.50;99.90;;;;;;5118945;27;20179;-83
2022/07/24 10:14:57;;;;;;;3.53;1.70;;;27.80;21.00;;;;;;5136582;27;20150;-84
2022/07/24 10:17:52;;;;;;;2.53;1.67;;;28.00;1.00;;;;;;5137379;27;20171;-84
2022/07/24 10:20:39;;;;;;;4.03;1.90;;;28.00;99.90;;;;;;5121348;27;20701;-83
2022/07/24 10:23:07;;;;;;;4.45;2.35;;;27.80;1.00;;;;;;5117904;27;20197;-83
2022/07/24 10:26:07;;;;;;;3.53;1.88;;;27.90;1.00;;;;;;5118029;27;20208;-82
2022/07/24 10:28:36;;;;;;;3.63;2.03;;;28.00;99.90;;;;;;5074395;27;20185;-83
2022/07/24 10:31:04;;;;;;;4.78;2.00;;;28.10;99.90;;;;;;5135965;27;20234;-82
2022/07/24 10:33:30;;;;;;;4.22;2.10;;;28.20;99.90;;;;;;5118768;27;20307;-82
2022/07/24 10:36:01;;;;;;;3.78;1.83;;;28.50;99.90;;;;;;5117192;27;20226;-83
2022/07/24 10:38:36;;;;;;;2.88;1.75;;;28.60;1.00;;;;;;5117475;27;20185;-82
2022/07/24 10:41:12;;;;;;;3.42;2.20;;;28.60;1.00;;;;;;5117939;27;20617;-83
2022/07/24 10:43:39;;;;;;;3.22;1.95;;;28.50;1.00;;;;;;5137121;27;20202;-82
2022/07/24 10:46:04;;;;;;;2.85;1.90;;;28.50;1.00;;;;;;5120921;27;20656;-83
2022/07/24 10:48:39;;;;;;;2.72;2.05;;;28.50;1.00;;;;;;5123248;27;20174;-82
2022/07/24 10:51:14;;;;;;;3.42;2.08;;;28.50;1.00;;;;;;5121026;27;20209;-83
2022/07/24 10:53:52;;;;;;;3.75;2.00;;;28.40;1.00;;;;;;5120709;27;20253;-85
2022/07/24 10:56:33;;;;;;;4.32;2.00;;;28.50;1.00;;;;;;5126175;27;20174;-81
2022/07/24 10:59:11;;;;;;;3.90;2.47;;;28.70;1.00;;;;;;5149384;27;20182;-82
2022/07/24 11:01:38;;;;;;;3.78;2.65;;;29.00;1.00;;;;;;5122012;27;20205;-83
2022/07/24 11:04:26;;;;;;;2.60;2.03;;;29.10;99.90;;;;;;5142604;27;20159;-83
2022/07/24 11:07:21;;;;;;;5.82;2.42;;;29.00;99.90;;;;;;5141517;27;20183;-82
2022/07/24 11:09:56;;;;;;;2.92;2.05;;;28.80;99.90;;;;;;5111843;27;20230;-83
2022/07/24 11:12:33;;;;;;;3.25;1.90;;;28.90;99.90;;;;;;5127116;27;20271;-84
2022/07/24 11:17:48;;;;;;;4.53;1.98;;;29.30;99.90;;;;;;5158623;27;20165;-84
2022/07/24 11:20:17;;;;;;;3.22;2.38;;;29.30;41.10;;;;;;5137120;27;20193;-84
2022/07/24 11:22:49;;;;;;;4.18;2.40;;;29.10;99.90;;;;;;5131803;28;20170;-83
2022/07/24 11:25:26;;;;;;;5.30;3.15;;;29.10;99.90;;;;;;5156817;27;20143;-83
2022/07/24 11:28:08;;;;;;;3.22;2.03;;;29.10;99.90;;;;;;5137255;27;20189;-83
2022/07/24 11:30:33;;;;;;;6.13;2.22;;;29.20;93.10;;;;;;5143108;28;20209;-83
2022/07/24 11:33:00;;;;;;;3.15;2.25;;;29.20;99.90;;;;;;5119040;28;20158;-83
2022/07/24 11:35:28;;;;;;;3.55;2.30;;;29.10;99.90;;;;;;5118650;28;20177;-82
2022/07/24 11:37:54;;;;;;;4.43;2.58;;;29.10;99.90;;;;;;5139641;28;20155;-82
2022/07/24 11:40:21;;;;;;;4.57;2.20;;;29.40;99.90;;;;;;5157862;27;20186;-84
2022/07/24 11:42:53;;;;;;;4.70;2.50;;;29.50;35.70;;;;;;5140901;28;20174;-83
2022/07/24 11:45:19;;;;;;;2.70;2.40;;;29.40;3.60;;;;;;5131566;28;20166;-83
2022/07/24 11:47:46;;;;;;;3.30;2.40;;;29.40;9.50;;;;;;5127498;28;20177;-83
2022/07/24 11:51:00;;;;;;;2.83;2.38;;;29.30;64.90;;;;;;5119316;28;20232;-87
2022/07/24 11:53:27;;;;;;;4.97;2.72;;;29.20;99.90;;;;;;5117347;28;20204;-83
2022/07/24 11:56:05;;;;;;;5.47;2.55;;;29.10;99.90;;;;;;5116876;28;20176;-83
2022/07/24 11:58:38;;;;;;;5.28;2.45;;;29.20;99.90;;;;;;5136250;28;20177;-83
2022/07/24 12:01:21;;;;;;;6.63;2.70;;;29.50;99.90;;;;;;5118192;28;20641;-83
2022/07/24 12:03:52;;;;;;;4.85;3.83;;;29.80;99.90;;;;;;5117030;28;20169;-82
2022/07/24 12:06:19;;;;;;;3.33;2.53;;;30.10;46.80;;;;;;5116077;28;20552;-82
2022/07/24 12:08:45;;;;;;;3.95;2.50;;;30.10;1.00;;;;;;5136697;28;20181;-83
2022/07/24 12:11:19;;;;;;;5.10;2.95;;;30.10;1.00;;;;;;5116833;28;20206;-83
2022/07/24 12:13:44;;;;;;;4.70;2.83;;;30.10;1.00;;;;;;5117037;28;20653;-82
2022/07/24 12:16:10;;;;;;;4.40;3.05;;;30.00;99.90;;;;;;5135110;28;20195;-84
2022/07/24 12:18:36;;;;;;;4.03;2.90;;;30.00;99.90;;;;;;5116902;28;20257;-84
2022/07/24 12:21:03;;;;;;;5.07;4.43;;;30.00;99.90;;;;;;5118675;27;20174;-84
2022/07/24 12:23:29;;;;;;;3.78;3.17;;;30.10;14.30;;;;;;5140158;27;20240;-83
2022/07/24 12:25:55;;;;;;;3.90;2.83;;;30.30;58.90;;;;;;5122311;27;20201;-83
2022/07/24 12:28:21;;;;;;;3.65;2.80;;;30.50;1.00;;;;;;5124715;27;20166;-82
2022/07/24 12:30:54;;;;;;;4.47;2.65;;;30.40;1.00;;;;;;5138245;27;20239;-83
2022/07/24 12:33:22;;;;;;;4.20;2.90;;;30.30;1.00;;;;;;5143425;27;20215;-82
2022/07/24 12:35:59;;;;;;;6.97;3.78;;;30.20;1.00;;;;;;5160265;27;20232;-83
2022/07/24 12:38:39;;;;;;;6.07;3.80;;;30.10;1.00;;;;;;5137119;27;20201;-84
2022/07/24 12:41:21;;;;;;;5.35;3.17;;;30.10;1.00;;;;;;5144669;27;20150;-83
2022/07/24 12:43:52;;;;;;;4.85;2.75;;;30.20;1.00;;;;;;5126229;27;20174;-83
2022/07/24 12:46:21;;;;;;;3.67;3.17;;;30.50;1.00;;;;;;5121456;27;20182;-82
2022/07/24 12:49:08;;;;;;;4.70;3.22;;;30.70;1.00;;;;;;5139058;27;20173;-83
2022/07/24 12:52:03;;;;;;;5.10;3.05;;;30.90;1.00;;;;;;5119886;27;20198;-83